Klemtu, Canada
Current Conditions -  °F | °C
As of 6:00 AM on Monday 20 Oct 2014 (Local Time) from CBBC Reporting Station
Light Rain Light Rain  
Wind Chill: 52°   Ceiling: 4500
Heat Index: 52°   Visibility: 9mi
Dew Point: 50°   Wind: 6mph
Humidity: 94%   Direction: 150°SSE
Pressure: 29.54"   Gusts: NA
Location:  52.58°N, 128.53°W
Report Text: CBBC 201300Z AUTO 15005KT 9SM -RA SCT038 BKN045 BKN055 OVC210 11/10 A2954 RMK SLP003
Loading
Personal Weather Stations






























Interactive Weather Map
Tropical Storm Tracking
New forecast layout! Learn more

10-Day Weather Forecast

Advertisements
Track Severe Weather on mobile